Terminal Aerodrome Forecast
Issued by NWS

Home | Current Version | Previous Version | Text Only | Print | Product List | Glossary On
Versions: 1 2 3 4 5 6 7 8 9 10 11 12 13 14 15 16 17 18 19 20 21 22
000
FTAK31 PANC 232332
TAFADU
TAF
PADU 232332Z 2400/2424 06012KT 5SM BR BKN003
      TEMPO 2402/2406 SCT003 BKN010
     FM240600 07006KT 4SM BR OVC003=

USA.gov is the U.S. government's official web portal to all federal, state and local government web resources and services.